createdAt,value
2023-05-14T00:00:12.627Z,7.32
2023-05-14T00:01:14.767Z,7.47
2023-05-14T00:02:17.130Z,6.82
2023-05-14T00:03:19.354Z,7.70
2023-05-14T00:04:23.663Z,8.05
2023-05-14T00:05:26.021Z,7.32
2023-05-14T00:06:28.284Z,7.30
2023-05-14T00:07:31.062Z,7.78
2023-05-14T00:08:34.805Z,7.38
2023-05-14T00:09:37.002Z,8.35
2023-05-14T00:10:39.165Z,8.40
2023-05-14T00:11:41.344Z,9.90
2023-05-14T00:12:43.490Z,11.05
2023-05-14T00:13:45.859Z,10.00
2023-05-14T00:14:48.126Z,10.10
2023-05-14T00:15:50.382Z,10.82
2023-05-14T00:16:52.545Z,10.43
2023-05-14T00:17:55.101Z,10.57
2023-05-14T00:18:57.370Z,10.20
2023-05-14T00:19:59.686Z,8.95
2023-05-14T00:21:01.872Z,8.90
2023-05-14T00:22:04.358Z,9.75
2023-05-14T00:23:06.620Z,8.90
2023-05-14T00:24:10.192Z,9.57
2023-05-14T00:25:12.421Z,9.07
2023-05-14T00:26:14.635Z,8.07
2023-05-14T00:27:16.785Z,8.68
2023-05-14T00:28:19.002Z,8.95
2023-05-14T00:29:21.158Z,8.68
2023-05-14T00:30:23.497Z,8.90
2023-05-14T00:31:25.855Z,8.38
2023-05-14T00:32:28.053Z,8.57
2023-05-14T00:33:30.240Z,7.32
2023-05-14T00:34:32.402Z,8.00
2023-05-14T00:35:35.912Z,7.78
2023-05-14T00:36:38.132Z,7.35
2023-05-14T00:37:40.398Z,8.00
2023-05-14T00:38:42.593Z,7.75
2023-05-14T00:39:46.207Z,8.93
2023-05-14T00:40:51.845Z,7.72
2023-05-14T00:41:54.117Z,7.82
2023-05-14T00:42:56.842Z,7.55
2023-05-14T00:43:59.195Z,8.02
2023-05-14T00:45:01.369Z,7.70
2023-05-14T00:46:03.980Z,8.00
2023-05-14T00:47:07.041Z,7.85
2023-05-14T00:48:09.518Z,7.57
2023-05-14T00:49:11.870Z,7.93
2023-05-14T00:50:16.189Z,8.10
2023-05-14T00:51:19.206Z,7.70
2023-05-14T00:52:22.175Z,7.63
2023-05-14T00:53:24.570Z,7.50
2023-05-14T00:54:28.242Z,7.80
2023-05-14T00:55:32.368Z,8.07
2023-05-14T00:56:35.538Z,7.85
2023-05-14T00:57:38.026Z,8.20
2023-05-14T00:58:40.195Z,7.60
2023-05-14T00:59:42.908Z,7.38
2023-05-14T01:00:45.197Z,7.65
2023-05-14T01:01:47.474Z,8.25
2023-05-14T01:02:49.710Z,7.10
2023-05-14T01:03:53.636Z,8.02
2023-05-14T01:04:56.162Z,7.30
2023-05-14T01:06:10.582Z,7.28
2023-05-14T01:07:20.459Z,7.32
2023-05-14T01:08:32.360Z,7.88
2023-05-14T01:09:42.952Z,7.47
2023-05-14T01:10:53.096Z,7.38
2023-05-14T01:12:01.171Z,7.45
2023-05-14T01:13:10.376Z,7.35
2023-05-14T01:14:21.714Z,8.70
2023-05-14T01:16:29.724Z,8.48
2023-05-14T01:17:34.007Z,8.60
2023-05-14T01:18:36.756Z,8.40
2023-05-14T01:19:41.653Z,9.60
2023-05-14T01:20:44.617Z,10.15
2023-05-14T01:21:48.208Z,8.95
2023-05-14T01:22:50.667Z,9.38
2023-05-14T01:23:52.822Z,9.90
2023-05-14T01:24:55.069Z,9.38
2023-05-14T01:25:57.249Z,10.18
2023-05-14T01:27:07.418Z,9.70
2023-05-14T01:28:13.310Z,9.75
2023-05-14T01:29:20.936Z,8.73
2023-05-14T01:30:29.168Z,10.10
2023-05-14T01:32:44.893Z,9.15
2023-05-14T01:33:49.105Z,9.63
2023-05-14T01:34:52.459Z,9.20
2023-05-14T01:35:55.837Z,10.02
2023-05-14T01:37:00.704Z,9.88
2023-05-14T01:38:07.364Z,9.27
2023-05-14T01:39:10.731Z,9.15
2023-05-14T01:40:14.119Z,8.98
2023-05-14T01:41:18.205Z,8.68
2023-05-14T01:42:20.793Z,9.80
2023-05-14T01:43:23.857Z,9.25
2023-05-14T01:44:26.355Z,8.75
2023-05-14T01:45:28.476Z,9.10
2023-05-14T01:46:31.814Z,8.82
2023-05-14T01:47:34.608Z,8.77
2023-05-14T01:48:37.903Z,8.60
2023-05-14T01:49:40.065Z,8.60
2023-05-14T01:50:42.724Z,8.65
2023-05-14T01:51:44.958Z,9.43
2023-05-14T01:52:48.810Z,8.88
2023-05-14T01:53:51.334Z,8.43
2023-05-14T01:54:54.003Z,9.07
2023-05-14T01:55:56.225Z,9.40
2023-05-14T01:56:58.467Z,8.75
2023-05-14T01:58:00.864Z,8.27
2023-05-14T01:59:03.022Z,8.20
2023-05-14T02:00:07.693Z,8.32
2023-05-14T02:01:10.000Z,8.88
2023-05-14T02:02:12.177Z,9.00
2023-05-14T02:03:14.383Z,8.98
2023-05-14T02:04:16.611Z,8.88
2023-05-14T02:05:19.340Z,9.05
2023-05-14T02:06:21.539Z,9.52
2023-05-14T02:07:23.752Z,9.55
2023-05-14T02:08:27.551Z,9.50
2023-05-14T02:09:30.707Z,9.45
2023-05-14T02:10:32.856Z,9.30
2023-05-14T02:11:35.056Z,9.05
2023-05-14T02:12:37.523Z,9.05
2023-05-14T02:13:39.795Z,8.88
2023-05-14T02:14:42.241Z,9.27
2023-05-14T02:15:44.452Z,9.10
2023-05-14T02:16:46.640Z,9.45
2023-05-14T02:17:48.891Z,8.77
2023-05-14T02:18:51.209Z,9.20
2023-05-14T02:19:53.656Z,9.23
2023-05-14T02:20:55.903Z,9.05
2023-05-14T02:21:59.319Z,9.07
2023-05-14T02:23:01.512Z,9.25
2023-05-14T02:24:05.571Z,9.23
2023-05-14T02:25:09.211Z,8.73
2023-05-14T02:26:12.385Z,9.43
2023-05-14T02:27:14.533Z,9.15
2023-05-14T02:28:16.882Z,9.63
2023-05-14T02:29:19.122Z,8.77
2023-05-14T02:30:22.792Z,8.75
2023-05-14T02:31:25.553Z,9.13
2023-05-14T02:32:28.046Z,9.02
2023-05-14T02:33:30.390Z,9.85
2023-05-14T02:34:34.514Z,9.10
2023-05-14T02:35:37.514Z,9.65
2023-05-14T02:36:40.101Z,9.75
2023-05-14T02:37:42.298Z,9.52
2023-05-14T02:38:44.520Z,10.10
2023-05-14T02:39:49.158Z,9.25
2023-05-14T02:40:51.407Z,9.77
2023-05-14T02:41:53.628Z,9.25
2023-05-14T02:42:55.873Z,9.63
2023-05-14T02:43:58.008Z,9.60
2023-05-14T02:45:00.252Z,9.05
2023-05-14T02:46:02.438Z,9.57
2023-05-14T02:47:06.244Z,9.10
2023-05-14T02:48:08.697Z,9.20
2023-05-14T02:49:11.025Z,8.70
2023-05-14T02:50:13.272Z,9.80
2023-05-14T02:51:16.937Z,8.75
2023-05-14T02:52:19.141Z,9.25
2023-05-14T02:53:21.363Z,8.63
2023-05-14T02:54:23.510Z,9.15
2023-05-14T02:55:27.261Z,9.23
2023-05-14T02:56:29.402Z,8.98
2023-05-14T02:57:31.564Z,8.55
2023-05-14T02:58:33.812Z,8.20
2023-05-14T02:59:36.292Z,8.63
2023-05-14T03:00:38.858Z,8.73
2023-05-14T03:01:41.648Z,8.35
2023-05-14T03:02:44.823Z,8.80
2023-05-14T03:03:47.518Z,8.40
2023-05-14T03:04:50.657Z,9.07
2023-05-14T03:05:52.966Z,8.90
2023-05-14T03:06:55.240Z,8.70
2023-05-14T03:07:57.396Z,8.68
2023-05-14T03:08:59.714Z,8.50
2023-05-14T03:10:02.030Z,9.48
2023-05-14T03:11:06.953Z,8.60
2023-05-14T03:12:09.307Z,8.57
2023-05-14T03:13:11.646Z,8.40
2023-05-14T03:14:13.974Z,8.80
2023-05-14T03:15:16.220Z,8.55
2023-05-14T03:16:18.529Z,8.65
2023-05-14T03:17:20.875Z,9.02
2023-05-14T03:18:23.189Z,9.00
2023-05-14T03:19:25.925Z,8.63
2023-05-14T03:20:28.280Z,8.57
2023-05-14T03:21:31.382Z,8.98
2023-05-14T03:22:33.712Z,8.77
2023-05-14T03:23:36.075Z,9.57
2023-05-14T03:24:40.285Z,8.63
2023-05-14T03:25:42.558Z,9.05
2023-05-14T03:26:46.253Z,9.85
2023-05-14T03:27:48.448Z,9.15
2023-05-14T03:28:50.900Z,8.75
2023-05-14T03:29:53.065Z,8.60
2023-05-14T03:30:55.398Z,8.75
2023-05-14T03:31:57.913Z,8.90
2023-05-14T03:33:00.299Z,7.90
2023-05-14T03:34:02.704Z,8.18
2023-05-14T03:35:05.906Z,8.73
2023-05-14T03:36:08.419Z,9.02
2023-05-14T03:37:11.046Z,9.15
2023-05-14T03:38:13.297Z,8.57
2023-05-14T03:39:19.664Z,8.80
2023-05-14T03:40:22.084Z,8.50
2023-05-14T03:41:24.413Z,8.95
2023-05-14T03:42:27.988Z,8.57
2023-05-14T03:43:30.471Z,8.73
2023-05-14T03:44:32.672Z,8.48
2023-05-14T03:46:38.181Z,8.57
2023-05-14T03:47:40.496Z,8.60
2023-05-14T03:48:42.911Z,8.18
2023-05-14T03:49:45.145Z,7.72
2023-05-14T03:50:47.824Z,8.60
2023-05-14T03:51:50.049Z,8.43
2023-05-14T03:52:52.649Z,8.60
2023-05-14T03:53:55.011Z,8.68
2023-05-14T03:54:57.178Z,8.25
2023-05-14T03:55:59.572Z,8.32
2023-05-14T03:57:02.061Z,8.90
2023-05-14T03:58:13.813Z,8.50
2023-05-14T03:59:15.998Z,7.78
2023-05-14T04:00:18.620Z,8.20
2023-05-14T04:01:20.815Z,8.25
2023-05-14T04:02:23.572Z,8.30
2023-05-14T04:03:26.025Z,8.00
2023-05-14T04:04:28.439Z,8.15
2023-05-14T04:05:30.712Z,7.80
2023-05-14T04:06:33.533Z,7.60
2023-05-14T04:07:35.798Z,7.55
2023-05-14T04:08:37.947Z,7.18
2023-05-14T04:09:40.104Z,7.90
2023-05-14T04:10:43.695Z,6.78
2023-05-14T04:11:46.339Z,6.78
2023-05-14T04:12:48.557Z,6.88
2023-05-14T04:13:52.231Z,7.07
2023-05-14T04:14:54.405Z,6.20
2023-05-14T04:15:56.598Z,6.30
2023-05-14T04:17:00.281Z,6.53
2023-05-14T04:18:02.715Z,5.68
2023-05-14T04:19:05.844Z,6.35
2023-05-14T04:20:10.506Z,5.65
2023-05-14T04:21:13.109Z,5.60
2023-05-14T04:22:15.401Z,5.85
2023-05-14T04:23:17.600Z,5.53
2023-05-14T04:24:19.706Z,5.75
2023-05-14T04:25:22.068Z,5.18
2023-05-14T04:26:24.323Z,5.45
2023-05-14T04:27:27.338Z,5.45
2023-05-14T04:28:29.510Z,5.38
2023-05-14T04:29:33.199Z,5.10
2023-05-14T04:30:35.665Z,5.30
2023-05-14T04:31:38.006Z,4.90
2023-05-14T04:32:40.910Z,5.22
2023-05-14T04:33:43.137Z,4.78
2023-05-14T04:34:46.892Z,5.15
2023-05-14T04:35:49.133Z,4.63
2023-05-14T04:36:52.165Z,5.30
2023-05-14T04:37:54.412Z,5.03
2023-05-14T04:38:57.011Z,4.82
2023-05-14T04:39:59.223Z,4.82
2023-05-14T04:41:01.393Z,4.57
2023-05-14T04:42:03.902Z,4.35
2023-05-14T04:43:06.270Z,4.40
2023-05-14T04:44:09.123Z,4.70
2023-05-14T04:45:14.147Z,4.90
2023-05-14T04:46:16.408Z,4.70
2023-05-14T04:47:18.756Z,4.70
2023-05-14T04:48:21.058Z,4.55
2023-05-14T04:49:23.247Z,4.47
2023-05-14T04:50:25.933Z,4.43
2023-05-14T04:51:28.645Z,4.25
2023-05-14T04:52:30.813Z,3.90
2023-05-14T04:53:33.287Z,4.47
2023-05-14T04:54:35.475Z,4.47
2023-05-14T04:55:37.912Z,4.32
2023-05-14T04:56:40.153Z,4.43
2023-05-14T04:57:42.672Z,4.32
2023-05-14T04:58:45.116Z,4.43
2023-05-14T04:59:47.405Z,3.53
2023-05-14T05:00:51.034Z,4.10
2023-05-14T05:01:53.224Z,3.63
2023-05-14T05:02:55.732Z,4.22
2023-05-14T05:03:58.271Z,4.10
2023-05-14T05:05:00.727Z,3.90
2023-05-14T05:06:02.934Z,3.40
2023-05-14T05:07:06.394Z,3.33
2023-05-14T05:08:08.662Z,3.80
2023-05-14T05:09:10.935Z,3.80
2023-05-14T05:10:13.864Z,3.35
2023-05-14T05:11:16.322Z,4.03
2023-05-14T05:12:18.472Z,3.20
2023-05-14T05:13:20.617Z,3.65
2023-05-14T05:14:22.828Z,3.50
2023-05-14T05:15:26.587Z,3.95
2023-05-14T05:16:30.648Z,3.75
2023-05-14T05:17:32.865Z,3.60
2023-05-14T05:18:35.144Z,3.78
2023-05-14T05:19:43.753Z,3.50
2023-05-14T05:20:46.592Z,3.72
2023-05-14T05:21:48.860Z,3.63
2023-05-14T05:22:51.039Z,3.90
2023-05-14T05:23:53.402Z,3.53
2023-05-14T05:24:55.562Z,3.78
2023-05-14T05:25:57.728Z,3.65
2023-05-14T05:26:59.948Z,3.85
2023-05-14T05:28:02.204Z,3.42
2023-05-14T05:29:04.792Z,3.42
2023-05-14T05:30:08.431Z,3.63
2023-05-14T05:31:10.829Z,3.50
2023-05-14T05:32:14.496Z,3.72
2023-05-14T05:33:16.754Z,3.40
2023-05-14T05:34:20.189Z,3.47
2023-05-14T05:35:22.420Z,3.25
2023-05-14T05:36:24.684Z,3.22
2023-05-14T05:37:26.920Z,3.80
2023-05-14T05:38:29.110Z,3.50
2023-05-14T05:39:34.924Z,3.45
2023-05-14T05:40:37.431Z,3.75
2023-05-14T05:41:39.675Z,3.25
2023-05-14T05:42:41.985Z,4.13
2023-05-14T05:43:44.205Z,3.50
2023-05-14T05:44:46.406Z,3.53
2023-05-14T05:45:48.612Z,3.20
2023-05-14T05:46:51.245Z,3.30
2023-05-14T05:47:54.960Z,3.33
2023-05-14T05:48:57.215Z,3.85
2023-05-14T05:49:59.553Z,3.83
2023-05-14T05:51:01.832Z,3.17
2023-05-14T05:52:04.383Z,3.63
2023-05-14T05:53:06.572Z,3.33
2023-05-14T05:54:08.983Z,3.53
2023-05-14T05:55:11.215Z,3.10
2023-05-14T05:56:13.383Z,3.20
2023-05-14T05:57:15.760Z,3.10
2023-05-14T05:58:18.226Z,3.15
2023-05-14T05:59:20.563Z,3.10
2023-05-14T06:00:25.870Z,3.20
2023-05-14T06:01:28.562Z,3.20
2023-05-14T06:02:30.967Z,2.85
2023-05-14T06:03:34.581Z,3.22
2023-05-14T06:04:36.753Z,2.90
2023-05-14T06:05:38.974Z,3.00
2023-05-14T06:06:41.264Z,2.90
2023-05-14T06:07:43.496Z,3.50
2023-05-14T06:08:45.650Z,2.83
2023-05-14T06:09:47.824Z,3.28
2023-05-14T06:10:50.053Z,3.10
2023-05-14T06:11:52.268Z,3.17
2023-05-14T06:12:54.688Z,3.15
2023-05-14T06:13:56.942Z,2.72
2023-05-14T06:14:59.185Z,3.10
2023-05-14T06:16:01.449Z,2.92
2023-05-14T06:17:03.756Z,3.10
2023-05-14T06:18:06.440Z,3.17
2023-05-14T06:19:10.264Z,3.15
2023-05-14T06:20:13.132Z,3.40
2023-05-14T06:21:15.314Z,3.25
2023-05-14T06:22:17.553Z,3.08
2023-05-14T06:23:19.732Z,2.67
2023-05-14T06:24:21.849Z,3.00
2023-05-14T06:25:24.095Z,2.50
2023-05-14T06:26:27.074Z,2.85
2023-05-14T06:27:30.365Z,2.90
2023-05-14T06:28:32.518Z,2.83
2023-05-14T06:29:34.778Z,2.80
2023-05-14T06:30:37.133Z,2.70
2023-05-14T06:31:39.380Z,3.13
2023-05-14T06:32:41.689Z,3.30
2023-05-14T06:33:43.980Z,2.88
2023-05-14T06:34:47.704Z,2.78
2023-05-14T06:35:51.259Z,2.70
2023-05-14T06:36:53.541Z,3.40
2023-05-14T06:37:55.735Z,2.90
2023-05-14T06:38:57.991Z,2.90
2023-05-14T06:40:00.609Z,2.80
2023-05-14T06:41:02.775Z,3.22
2023-05-14T06:42:05.421Z,2.90
2023-05-14T06:43:07.552Z,3.28
2023-05-14T06:44:09.732Z,2.78
2023-05-14T06:45:12.275Z,3.13
2023-05-14T06:46:14.414Z,3.22
2023-05-14T06:47:16.608Z,3.10
2023-05-14T06:48:19.646Z,2.65
2023-05-14T06:49:21.911Z,2.80
2023-05-14T06:50:25.763Z,2.80
2023-05-14T06:51:28.095Z,2.75
2023-05-14T06:52:30.218Z,2.92
2023-05-14T06:53:32.410Z,2.60
2023-05-14T06:54:34.578Z,3.00
2023-05-14T06:55:36.845Z,2.80
2023-05-14T06:56:39.044Z,2.95
2023-05-14T06:57:41.195Z,2.90
2023-05-14T06:58:43.352Z,2.90
2023-05-14T06:59:45.545Z,2.90
2023-05-14T07:00:48.418Z,2.78
2023-05-14T07:01:50.683Z,3.25
2023-05-14T07:02:52.908Z,2.90
2023-05-14T07:03:55.467Z,2.97
2023-05-14T07:04:57.622Z,3.50
2023-05-14T07:06:01.188Z,3.00
2023-05-14T07:07:03.623Z,2.92
2023-05-14T07:08:06.017Z,3.08
2023-05-14T07:09:08.146Z,3.03
2023-05-14T07:10:10.993Z,3.30
2023-05-14T07:11:13.860Z,3.35
2023-05-14T07:12:15.991Z,3.35
2023-05-14T07:13:18.240Z,2.60
2023-05-14T07:14:20.668Z,3.05
2023-05-14T07:15:22.793Z,3.20
2023-05-14T07:16:25.168Z,3.10
2023-05-14T07:17:27.731Z,3.38
2023-05-14T07:18:30.148Z,3.30
2023-05-14T07:19:32.400Z,3.45
2023-05-14T07:20:34.594Z,2.88
2023-05-14T07:21:38.074Z,3.20
2023-05-14T07:22:40.333Z,3.47
2023-05-14T07:23:42.671Z,3.00
2023-05-14T07:24:44.814Z,3.30
2023-05-14T07:25:46.948Z,2.88
2023-05-14T07:26:49.229Z,3.22
2023-05-14T07:27:51.376Z,3.30
2023-05-14T07:28:54.799Z,3.30
2023-05-14T07:29:57.049Z,3.25
2023-05-14T07:30:59.609Z,3.65
2023-05-14T07:32:04.671Z,3.25
2023-05-14T07:33:07.035Z,3.17
2023-05-14T07:34:11.024Z,3.50
2023-05-14T07:35:13.315Z,3.63
2023-05-14T07:36:15.654Z,3.25
2023-05-14T07:37:19.806Z,3.20
2023-05-14T07:38:22.834Z,3.00
2023-05-14T07:39:25.074Z,3.20
2023-05-14T07:40:27.590Z,3.33
2023-05-14T07:41:29.936Z,3.70
2023-05-14T07:42:36.554Z,3.58
2023-05-14T07:43:40.575Z,3.05
2023-05-14T07:44:42.860Z,3.40
2023-05-14T07:45:45.650Z,3.20
2023-05-14T07:46:47.811Z,3.00
2023-05-14T07:47:53.080Z,3.13
2023-05-14T07:48:55.947Z,3.20
2023-05-14T07:49:58.281Z,3.10
2023-05-14T07:51:00.780Z,3.20
2023-05-14T07:52:03.372Z,3.00
2023-05-14T07:53:06.942Z,3.17
2023-05-14T07:54:09.144Z,2.90
2023-05-14T07:55:12.296Z,2.90
2023-05-14T07:56:14.983Z,3.10
2023-05-14T07:57:17.229Z,2.47
2023-05-14T07:58:19.413Z,2.80
2023-05-14T07:59:22.143Z,2.70
2023-05-14T08:00:24.508Z,2.78
2023-05-14T08:01:27.079Z,3.30
2023-05-14T08:02:29.673Z,2.70
2023-05-14T08:03:32.057Z,2.63
2023-05-14T08:04:36.165Z,2.88
2023-05-14T08:05:38.677Z,2.53
2023-05-14T08:06:40.859Z,2.88
2023-05-14T08:07:43.481Z,2.80
2023-05-14T08:08:47.167Z,2.40
2023-05-14T08:09:49.374Z,2.83
2023-05-14T08:10:51.712Z,2.50
2023-05-14T08:11:54.023Z,2.42
2023-05-14T08:12:56.249Z,2.65
2023-05-14T08:13:58.432Z,2.30
2023-05-14T08:15:00.637Z,2.33
2023-05-14T08:16:02.922Z,2.80
2023-05-14T08:17:05.548Z,2.70
2023-05-14T08:18:10.217Z,2.78
2023-05-14T08:19:13.248Z,2.67
2023-05-14T08:20:15.883Z,2.78
2023-05-14T08:21:18.019Z,2.88
2023-05-14T08:22:20.733Z,2.90
2023-05-14T08:23:23.366Z,3.17
2023-05-14T08:24:26.983Z,3.22
2023-05-14T08:25:30.183Z,2.72
2023-05-14T08:26:32.549Z,2.30
2023-05-14T08:27:34.767Z,2.88
2023-05-14T08:28:36.961Z,2.63
2023-05-14T08:29:39.215Z,3.60
2023-05-14T08:30:43.457Z,2.90
2023-05-14T08:31:45.690Z,2.92
2023-05-14T08:32:48.320Z,2.70
2023-05-14T08:33:50.757Z,2.97
2023-05-14T08:34:53.038Z,2.65
2023-05-14T08:35:56.285Z,2.78
2023-05-14T08:36:59.594Z,2.72
2023-05-14T08:38:01.736Z,2.40
2023-05-14T08:39:03.989Z,2.28
2023-05-14T08:40:09.482Z,2.75
2023-05-14T08:41:15.075Z,2.50
2023-05-14T08:42:21.101Z,2.80
2023-05-14T08:43:27.263Z,2.42
2023-05-14T08:44:36.442Z,3.17
2023-05-14T08:45:40.525Z,2.78
2023-05-14T08:46:42.826Z,2.65
2023-05-14T08:47:49.712Z,2.95
2023-05-14T08:48:58.509Z,2.60
2023-05-14T08:50:05.771Z,2.58
2023-05-14T08:51:09.106Z,2.67
2023-05-14T08:52:11.699Z,2.75
2023-05-14T08:53:14.208Z,2.72
2023-05-14T08:54:17.859Z,2.80
2023-05-14T08:55:22.572Z,2.70
2023-05-14T08:56:25.982Z,2.92
2023-05-14T08:57:30.229Z,2.50
2023-05-14T08:58:32.372Z,2.85
2023-05-14T08:59:34.561Z,2.58
2023-05-14T09:00:36.864Z,2.40
2023-05-14T09:01:42.700Z,2.60
2023-05-14T09:02:46.694Z,2.70
2023-05-14T09:03:50.385Z,2.63
2023-05-14T09:04:55.934Z,2.50
2023-05-14T09:06:00.246Z,2.63
2023-05-14T09:07:02.956Z,3.03
2023-05-14T09:08:05.504Z,2.90
2023-05-14T09:09:07.824Z,2.53
2023-05-14T09:10:10.490Z,2.92
2023-05-14T09:11:14.234Z,2.10
2023-05-14T09:12:16.817Z,2.60
2023-05-14T09:13:19.024Z,2.70
2023-05-14T09:14:22.506Z,2.50
2023-05-14T09:15:27.827Z,2.80
2023-05-14T09:16:31.023Z,2.70
2023-05-14T09:17:33.811Z,2.70
2023-05-14T09:18:36.933Z,2.90
2023-05-14T09:19:40.487Z,2.72
2023-05-14T09:20:43.034Z,2.55
2023-05-14T09:21:46.208Z,2.55
2023-05-14T09:22:48.482Z,2.75
2023-05-14T09:23:55.562Z,2.63
2023-05-14T09:25:05.721Z,2.50
2023-05-14T09:26:08.154Z,2.77
2023-05-14T09:27:19.601Z,2.80
2023-05-14T09:28:24.504Z,2.70
2023-05-14T09:29:27.468Z,3.05
2023-05-14T09:30:30.111Z,2.63
2023-05-14T09:31:33.917Z,2.60
2023-05-14T09:32:37.353Z,2.35
2023-05-14T09:33:39.676Z,2.53
2023-05-14T09:34:42.420Z,2.67
2023-05-14T09:35:44.682Z,2.75
2023-05-14T09:36:47.354Z,3.03
2023-05-14T09:37:51.101Z,3.08
2023-05-14T09:38:53.401Z,2.78
2023-05-14T09:39:55.610Z,2.75
2023-05-14T09:40:58.011Z,2.90
2023-05-14T09:42:01.230Z,2.97
2023-05-14T09:43:05.047Z,3.53
2023-05-14T09:44:07.377Z,3.03
2023-05-14T09:45:10.722Z,2.72
2023-05-14T09:46:12.842Z,3.28
2023-05-14T09:47:16.068Z,2.90
2023-05-14T09:48:18.484Z,2.80
2023-05-14T09:49:21.150Z,2.55
2023-05-14T09:50:23.508Z,2.67
2023-05-14T09:51:28.802Z,2.88
2023-05-14T09:52:31.161Z,2.72
2023-05-14T09:53:34.473Z,3.00
2023-05-14T09:54:38.124Z,2.95
2023-05-14T09:55:40.770Z,2.50
2023-05-14T09:56:44.003Z,2.67
2023-05-14T09:57:46.282Z,2.50
2023-05-14T09:58:50.005Z,2.63
2023-05-14T09:59:52.293Z,2.50
2023-05-14T10:00:56.918Z,3.10
2023-05-14T10:01:59.719Z,2.50
2023-05-14T10:03:06.166Z,2.78
2023-05-14T10:04:09.667Z,2.85
2023-05-14T10:05:13.425Z,2.60
2023-05-14T10:06:19.232Z,2.45
2023-05-14T10:07:26.242Z,2.40
2023-05-14T10:08:33.751Z,2.75
2023-05-14T10:09:38.478Z,2.78
2023-05-14T10:10:40.873Z,2.85
2023-05-14T10:11:45.399Z,2.63
2023-05-14T10:12:52.506Z,2.50
2023-05-14T10:14:02.640Z,2.60
2023-05-14T10:15:12.949Z,2.30
2023-05-14T10:16:22.000Z,2.58
2023-05-14T10:17:27.145Z,2.65
2023-05-14T10:18:33.077Z,2.42
2023-05-14T10:19:36.918Z,2.17
2023-05-14T10:20:41.560Z,2.15
2023-05-14T10:21:48.709Z,2.25
2023-05-14T10:22:51.308Z,2.53
2023-05-14T10:23:53.479Z,2.40
2023-05-14T10:24:56.478Z,2.30
2023-05-14T10:25:59.650Z,2.50
2023-05-14T10:27:02.166Z,2.25
2023-05-14T10:28:06.076Z,2.35
2023-05-14T10:29:10.344Z,2.40
2023-05-14T10:30:13.130Z,2.33
2023-05-14T10:31:15.813Z,2.70
2023-05-14T10:32:21.000Z,2.60
2023-05-14T10:33:23.145Z,2.35
2023-05-14T10:34:33.422Z,2.25
2023-05-14T10:35:58.236Z,2.10
2023-05-14T10:37:01.821Z,2.80
2023-05-14T10:38:08.511Z,2.25
2023-05-14T10:39:10.672Z,2.72
2023-05-14T10:40:14.024Z,2.33
2023-05-14T10:41:18.097Z,2.45
2023-05-14T10:42:22.686Z,2.53
2023-05-14T10:43:28.318Z,2.72
2023-05-14T10:44:35.147Z,2.15
2023-05-14T10:45:37.378Z,1.88
2023-05-14T10:46:40.158Z,2.22
2023-05-14T10:47:44.431Z,2.40
2023-05-14T10:48:46.783Z,2.30
2023-05-14T10:49:49.563Z,2.47
2023-05-14T10:50:52.676Z,2.20
2023-05-14T10:51:54.961Z,2.35
2023-05-14T10:52:57.648Z,2.67
2023-05-14T10:54:01.789Z,2.40
2023-05-14T10:55:08.700Z,2.28
2023-05-14T10:56:12.887Z,2.20
2023-05-14T10:57:15.032Z,2.15
2023-05-14T10:58:18.050Z,2.90
2023-05-14T10:59:20.231Z,2.80
2023-05-14T11:00:27.812Z,2.58
2023-05-14T11:01:29.939Z,2.30
2023-05-14T11:02:34.725Z,2.60
2023-05-14T11:03:42.079Z,2.67
2023-05-14T11:04:55.680Z,2.33
2023-05-14T11:05:58.011Z,2.10
2023-05-14T11:07:01.390Z,2.58
2023-05-14T11:08:08.033Z,2.63
2023-05-14T11:09:10.802Z,2.92
2023-05-14T11:10:14.738Z,3.00
2023-05-14T11:11:19.258Z,2.35
2023-05-14T11:12:21.806Z,2.13
2023-05-14T11:13:26.127Z,2.17
2023-05-14T11:14:28.715Z,2.20
2023-05-14T11:15:32.517Z,2.30
2023-05-14T11:16:34.917Z,2.20
2023-05-14T11:17:38.568Z,2.30
2023-05-14T11:18:42.041Z,2.65
2023-05-14T11:19:45.911Z,2.35
2023-05-14T11:20:48.240Z,2.50
2023-05-14T11:21:51.020Z,2.40
2023-05-14T11:22:53.245Z,2.25
2023-05-14T11:23:55.636Z,2.28
2023-05-14T11:24:57.872Z,2.63
2023-05-14T11:26:00.042Z,2.83
2023-05-14T11:27:02.266Z,1.98
2023-05-14T11:28:05.121Z,2.67
2023-05-14T11:29:07.315Z,2.20
2023-05-14T11:30:14.373Z,2.13
2023-05-14T11:31:18.175Z,2.72
2023-05-14T11:32:20.664Z,2.17
2023-05-14T11:33:22.825Z,2.50
2023-05-14T11:34:25.274Z,2.50
2023-05-14T11:35:27.783Z,2.42
2023-05-14T11:36:29.934Z,2.08
2023-05-14T11:37:32.032Z,2.20
2023-05-14T11:38:34.172Z,2.42
2023-05-14T11:39:37.696Z,2.20
2023-05-14T11:40:39.853Z,2.30
2023-05-14T11:41:44.803Z,2.10
2023-05-14T11:42:47.047Z,1.77
2023-05-14T11:43:49.455Z,1.75
2023-05-14T11:44:52.618Z,2.47
2023-05-14T11:45:55.705Z,2.10
2023-05-14T11:47:01.413Z,2.70
2023-05-14T11:48:11.918Z,2.40
2023-05-14T11:49:14.246Z,2.17
2023-05-14T11:50:17.275Z,2.47
2023-05-14T11:51:21.431Z,3.90
2023-05-14T11:52:23.774Z,3.10
2023-05-14T11:53:27.585Z,2.08
2023-05-14T11:54:31.951Z,2.42
2023-05-14T11:55:35.285Z,2.15
2023-05-14T11:56:37.469Z,2.13
2023-05-14T11:57:39.862Z,2.85
2023-05-14T11:58:47.530Z,2.70
2023-05-14T11:59:55.026Z,2.10
2023-05-14T12:00:57.301Z,2.60
2023-05-14T12:02:03.697Z,2.40
2023-05-14T12:03:06.681Z,2.28
2023-05-14T12:04:09.636Z,2.60
2023-05-14T12:05:13.646Z,2.33
2023-05-14T12:06:15.942Z,2.30
2023-05-14T12:07:18.455Z,2.25
2023-05-14T12:08:21.460Z,2.20
2023-05-14T12:09:24.064Z,1.92
2023-05-14T12:10:26.442Z,2.00
2023-05-14T12:11:31.911Z,2.35
2023-05-14T12:12:36.590Z,2.35
2023-05-14T12:13:40.704Z,2.00
2023-05-14T12:14:43.666Z,2.08
2023-05-14T12:15:47.139Z,2.38
2023-05-14T12:16:50.459Z,2.17
2023-05-14T12:17:54.127Z,2.28
2023-05-14T12:19:00.997Z,2.63
2023-05-14T12:20:04.302Z,2.33
2023-05-14T12:21:09.788Z,2.25
2023-05-14T12:22:14.298Z,2.05
2023-05-14T12:23:16.616Z,2.17
2023-05-14T12:24:22.312Z,2.10
2023-05-14T12:25:26.096Z,2.78
2023-05-14T12:26:28.822Z,1.95
2023-05-14T12:27:31.134Z,2.28
2023-05-14T12:28:36.061Z,2.10
2023-05-14T12:29:40.100Z,2.70
2023-05-14T12:30:42.241Z,2.30
2023-05-14T12:31:48.190Z,2.15
2023-05-14T12:32:53.114Z,2.10
2023-05-14T12:33:57.330Z,2.20
2023-05-14T12:34:59.526Z,2.25
2023-05-14T12:36:17.571Z,2.47
2023-05-14T12:37:23.098Z,2.35
2023-05-14T12:38:25.579Z,2.42
2023-05-14T12:39:27.933Z,2.50
2023-05-14T12:40:30.662Z,2.25
2023-05-14T12:41:34.156Z,2.35
2023-05-14T12:42:36.562Z,2.40
2023-05-14T12:43:39.850Z,2.30
2023-05-14T12:44:42.023Z,1.98
2023-05-14T12:45:44.296Z,2.35
2023-05-14T12:46:46.542Z,2.20
2023-05-14T12:47:48.802Z,2.47
2023-05-14T12:48:53.144Z,2.42
2023-05-14T12:49:57.255Z,2.80
2023-05-14T12:50:59.412Z,2.60
2023-05-14T12:52:19.432Z,2.72
2023-05-14T12:53:23.616Z,2.30
2023-05-14T12:54:25.858Z,2.33
2023-05-14T12:55:28.098Z,2.50
2023-05-14T12:56:32.088Z,2.58
2023-05-14T12:57:35.587Z,2.42
2023-05-14T12:58:38.177Z,2.15
2023-05-14T12:59:41.179Z,3.38
2023-05-14T13:00:43.377Z,3.00
2023-05-14T13:01:45.761Z,2.78
2023-05-14T13:02:48.570Z,2.50
2023-05-14T13:03:51.306Z,2.30
2023-05-14T13:04:53.477Z,2.50
2023-05-14T13:05:57.352Z,2.58
2023-05-14T13:06:59.715Z,2.65
2023-05-14T13:08:03.966Z,2.40
2023-05-14T13:09:06.590Z,2.40
2023-05-14T13:10:09.986Z,2.72
2023-05-14T13:11:13.397Z,2.72
2023-05-14T13:12:15.669Z,3.08
2023-05-14T13:13:17.749Z,3.22
2023-05-14T13:14:20.370Z,3.13
2023-05-14T13:15:23.091Z,2.97
2023-05-14T13:16:25.875Z,2.83
2023-05-14T13:17:28.227Z,2.70
2023-05-14T13:18:30.554Z,2.85
2023-05-14T13:19:33.233Z,2.88
2023-05-14T13:20:35.425Z,2.85
2023-05-14T13:21:39.077Z,3.80
2023-05-14T13:22:43.128Z,3.22
2023-05-14T13:23:45.633Z,3.28
2023-05-14T13:24:47.900Z,3.03
2023-05-14T13:25:50.186Z,2.78
2023-05-14T13:26:52.369Z,2.58
2023-05-14T13:27:55.057Z,2.83
2023-05-14T13:28:57.152Z,2.55
2023-05-14T13:29:59.642Z,2.30
2023-05-14T13:31:07.405Z,2.50
2023-05-14T13:32:09.639Z,2.65
2023-05-14T13:33:11.990Z,2.75
2023-05-14T13:34:14.797Z,2.72
2023-05-14T13:35:17.600Z,2.90
2023-05-14T13:36:20.007Z,2.70
2023-05-14T13:37:24.041Z,3.00
2023-05-14T13:38:26.222Z,2.47
2023-05-14T13:39:28.956Z,3.30
2023-05-14T13:40:31.321Z,2.63
2023-05-14T13:41:37.803Z,2.92
2023-05-14T13:42:39.995Z,2.90
2023-05-14T13:43:42.089Z,2.80
2023-05-14T13:44:44.749Z,2.92
2023-05-14T13:45:47.154Z,2.55
2023-05-14T13:46:49.496Z,2.80
2023-05-14T13:47:51.914Z,2.67
2023-05-14T13:48:54.094Z,2.33
2023-05-14T13:49:59.693Z,2.78
2023-05-14T13:51:01.875Z,2.80
2023-05-14T13:52:04.621Z,2.35
2023-05-14T13:53:08.171Z,2.60
2023-05-14T13:54:10.358Z,2.20
2023-05-14T13:55:13.590Z,2.60
2023-05-14T13:56:15.749Z,2.63
2023-05-14T13:57:18.148Z,2.83
2023-05-14T13:58:20.279Z,2.53
2023-05-14T13:59:23.914Z,2.70
2023-05-14T14:00:27.189Z,2.80
2023-05-14T14:01:31.060Z,2.63
2023-05-14T14:02:34.221Z,2.50
2023-05-14T14:03:36.545Z,2.97
2023-05-14T14:04:38.914Z,2.75